createdAt,value
2019-03-05T00:01:52.529Z,7.47
2019-03-05T00:04:23.111Z,7.43
2019-03-05T00:06:53.672Z,7.41
2019-03-05T00:09:24.159Z,7.40
2019-03-05T00:11:54.748Z,7.36
2019-03-05T00:14:25.257Z,7.35
2019-03-05T00:16:56.305Z,7.38
2019-03-05T00:19:26.777Z,7.35
2019-03-05T00:21:57.247Z,7.38
2019-03-05T00:25:02.453Z,7.35
2019-03-05T00:27:38.349Z,7.37
2019-03-05T00:30:58.515Z,7.39
2019-03-05T00:34:30.233Z,7.41
2019-03-05T00:37:13.695Z,7.39
2019-03-05T00:40:25.657Z,7.38
2019-03-05T00:43:50.260Z,7.38
2019-03-05T00:47:13.096Z,7.40
2019-03-05T00:51:01.975Z,7.34
2019-03-05T00:54:23.926Z,7.33
2019-03-05T00:57:45.535Z,7.32
2019-03-05T01:00:58.053Z,7.35
2019-03-05T01:04:16.192Z,7.41
2019-03-05T01:06:46.706Z,7.42
2019-03-05T01:09:21.089Z,7.39
2019-03-05T01:11:51.954Z,7.45
2019-03-05T01:14:24.530Z,7.46
2019-03-05T01:16:55.101Z,7.45
2019-03-05T01:19:25.623Z,7.43
2019-03-05T01:21:56.240Z,7.38
2019-03-05T01:24:26.748Z,7.39
2019-03-05T01:26:57.229Z,7.34
2019-03-05T01:29:27.837Z,7.30
2019-03-05T01:32:18.334Z,7.30
2019-03-05T01:35:04.222Z,7.23
2019-03-05T01:37:35.674Z,7.21
2019-03-05T01:40:28.979Z,7.19
2019-03-05T01:42:59.521Z,7.11
2019-03-05T01:45:30.194Z,7.03
2019-03-05T01:48:00.691Z,6.99
2019-03-05T01:50:31.448Z,6.96
2019-03-05T01:53:02.208Z,6.91
2019-03-05T01:55:32.754Z,6.82
2019-03-05T01:58:03.573Z,6.71
2019-03-05T02:00:34.890Z,6.65
2019-03-05T02:03:05.541Z,6.60
2019-03-05T02:05:36.012Z,6.56
2019-03-05T02:08:06.610Z,6.49
2019-03-05T02:10:37.209Z,6.51
2019-03-05T02:13:07.699Z,6.50
2019-03-05T02:15:38.218Z,6.47
2019-03-05T02:18:09.023Z,6.47
2019-03-05T02:20:39.542Z,6.51
2019-03-05T02:24:03.413Z,6.48
2019-03-05T02:27:41.318Z,6.48
2019-03-05T02:30:57.942Z,6.47
2019-03-05T02:34:38.429Z,6.41
2019-03-05T02:37:53.649Z,6.42
2019-03-05T02:40:49.199Z,6.41
2019-03-05T02:44:13.374Z,6.39
2019-03-05T02:47:21.205Z,6.33
2019-03-05T02:50:47.361Z,6.36
2019-03-05T02:54:16.135Z,6.39
2019-03-05T02:57:01.378Z,6.39
2019-03-05T02:59:32.181Z,6.46
2019-03-05T03:02:10.286Z,6.49
2019-03-05T03:04:43.329Z,6.50
2019-03-05T03:07:13.936Z,6.51
2019-03-05T03:10:17.169Z,6.56
2019-03-05T03:12:47.721Z,6.59
2019-03-05T03:15:20.285Z,6.62
2019-03-05T03:17:51.741Z,6.61
2019-03-05T03:20:23.516Z,6.59
2019-03-05T03:22:53.975Z,6.62
2019-03-05T03:25:25.404Z,6.63
2019-03-05T03:27:55.883Z,6.58
2019-03-05T03:30:28.460Z,6.55
2019-03-05T03:32:59.046Z,6.55
2019-03-05T03:35:29.541Z,6.51
2019-03-05T03:38:00.088Z,6.48
2019-03-05T03:40:31.134Z,6.41
2019-03-05T03:43:02.322Z,6.36
2019-03-05T03:45:33.106Z,6.36
2019-03-05T03:48:04.146Z,6.34
2019-03-05T03:50:34.909Z,6.36
2019-03-05T03:53:05.637Z,6.30
2019-03-05T03:55:36.362Z,6.31
2019-03-05T03:58:07.130Z,6.28
2019-03-05T04:00:37.589Z,6.32
2019-03-05T04:03:08.051Z,6.28
2019-03-05T04:05:38.651Z,6.30
2019-03-05T04:08:10.446Z,6.29
2019-03-05T04:10:41.113Z,6.29
2019-03-05T04:13:11.623Z,6.25
2019-03-05T04:15:42.135Z,6.21
2019-03-05T04:18:12.622Z,6.18
2019-03-05T04:20:49.574Z,6.13
2019-03-05T04:23:20.043Z,6.06
2019-03-05T04:25:50.523Z,6.06
2019-03-05T04:28:21.086Z,6.05
2019-03-05T04:30:51.884Z,6.03
2019-03-05T04:33:22.362Z,6.04
2019-03-05T04:35:53.075Z,6.05
2019-03-05T04:38:23.650Z,6.03
2019-03-05T04:40:54.223Z,6.04
2019-03-05T04:43:24.716Z,6.04
2019-03-05T04:46:12.601Z,6.05
2019-03-05T04:48:44.732Z,6.12
2019-03-05T04:51:22.320Z,6.19
2019-03-05T04:53:53.089Z,6.26
2019-03-05T04:56:23.545Z,6.36
2019-03-05T04:58:54.001Z,6.45
2019-03-05T05:01:24.752Z,6.51
2019-03-05T05:03:55.218Z,6.51
2019-03-05T05:06:25.689Z,6.58
2019-03-05T05:08:56.431Z,6.61
2019-03-05T05:11:26.903Z,6.65
2019-03-05T05:13:57.384Z,6.64
2019-03-05T05:16:28.254Z,6.70
2019-03-05T05:18:58.902Z,6.70
2019-03-05T05:21:29.413Z,6.72
2019-03-05T05:24:00.041Z,6.74
2019-03-05T05:26:30.548Z,6.74
2019-03-05T05:29:01.127Z,6.76
2019-03-05T05:31:31.658Z,6.80
2019-03-05T05:34:02.370Z,6.84
2019-03-05T05:36:32.929Z,6.81
2019-03-05T05:39:04.414Z,6.76
2019-03-05T05:41:35.136Z,6.76
2019-03-05T05:44:05.601Z,6.73
2019-03-05T05:46:36.100Z,6.68
2019-03-05T05:49:06.559Z,6.62
2019-03-05T05:51:37.022Z,6.55
2019-03-05T05:54:07.567Z,6.51
2019-03-05T05:56:38.028Z,6.46
2019-03-05T05:59:08.496Z,6.40
2019-03-05T06:01:39.483Z,6.36
2019-03-05T06:04:09.961Z,6.34
2019-03-05T06:06:40.478Z,6.27
2019-03-05T06:09:11.413Z,6.26
2019-03-05T06:11:41.865Z,6.23
2019-03-05T06:14:12.642Z,6.21
2019-03-05T06:16:43.188Z,6.21
2019-03-05T06:19:13.667Z,6.17
2019-03-05T06:21:44.122Z,6.16
2019-03-05T06:24:14.638Z,6.15
2019-03-05T06:26:45.251Z,6.12
2019-03-05T06:29:15.712Z,6.06
2019-03-05T06:31:46.225Z,6.07
2019-03-05T06:34:16.684Z,6.02
2019-03-05T06:36:57.783Z,5.99
2019-03-05T06:39:28.273Z,5.96
2019-03-05T06:41:59.007Z,5.95
2019-03-05T06:44:29.517Z,5.97
2019-03-05T06:46:59.986Z,5.98
2019-03-05T06:49:30.459Z,5.91
2019-03-05T06:52:01.217Z,5.92
2019-03-05T06:54:31.735Z,5.87
2019-03-05T06:57:02.415Z,5.83
2019-03-05T06:59:32.947Z,5.77
2019-03-05T07:02:03.824Z,5.71
2019-03-05T07:04:34.658Z,5.61
2019-03-05T07:07:05.184Z,5.58
2019-03-05T07:10:22.853Z,5.53
2019-03-05T07:13:21.091Z,5.48
2019-03-05T07:16:52.562Z,5.40
2019-03-05T07:19:59.865Z,5.39
2019-03-05T07:22:55.361Z,5.34
2019-03-05T07:25:25.879Z,5.34
2019-03-05T07:28:00.227Z,5.34
2019-03-05T07:30:31.012Z,5.31
2019-03-05T07:33:02.060Z,5.36
2019-03-05T07:35:34.522Z,5.37
2019-03-05T07:38:05.597Z,5.33
2019-03-05T07:40:36.082Z,5.34
2019-03-05T07:43:06.908Z,5.36
2019-03-05T07:45:37.658Z,5.35
2019-03-05T07:48:08.441Z,5.33
2019-03-05T07:50:39.061Z,5.39
2019-03-05T07:53:09.609Z,5.33
2019-03-05T07:55:40.183Z,5.29
2019-03-05T07:58:10.985Z,5.34
2019-03-05T08:00:41.705Z,5.42
2019-03-05T08:03:12.162Z,5.47
2019-03-05T08:05:42.704Z,5.60
2019-03-05T08:09:07.414Z,5.64
2019-03-05T08:11:38.055Z,5.69
2019-03-05T08:14:36.387Z,5.67
2019-03-05T08:17:06.991Z,5.65
2019-03-05T08:19:37.459Z,5.66
2019-03-05T08:22:09.733Z,5.75
2019-03-05T08:24:40.249Z,5.83
2019-03-05T08:27:10.967Z,5.80
2019-03-05T08:29:41.976Z,5.85
2019-03-05T08:32:12.577Z,5.75
2019-03-05T08:34:43.044Z,5.82
2019-03-05T08:37:13.703Z,5.85
2019-03-05T08:39:44.198Z,5.83
2019-03-05T08:42:14.708Z,5.88
2019-03-05T08:44:50.375Z,5.89
2019-03-05T08:47:20.904Z,5.92
2019-03-05T08:49:51.411Z,6.41
2019-03-05T08:52:21.911Z,8.19
2019-03-05T08:54:52.397Z,8.37
2019-03-05T08:57:22.935Z,9.46
2019-03-05T08:59:53.517Z,9.20
2019-03-05T09:02:24.055Z,9.19
2019-03-05T09:04:55.248Z,9.35
2019-03-05T09:07:26.195Z,9.64
2019-03-05T09:09:56.669Z,9.22
2019-03-05T09:12:27.623Z,9.74
2019-03-05T09:14:58.205Z,9.58
2019-03-05T09:17:28.825Z,9.00
2019-03-05T09:19:59.309Z,8.82
2019-03-05T09:22:29.834Z,8.41
2019-03-05T09:25:00.364Z,8.00
2019-03-05T09:27:31.147Z,7.56
2019-03-05T09:30:02.093Z,7.42
2019-03-05T09:32:32.581Z,7.37
2019-03-05T09:35:03.058Z,7.35
2019-03-05T09:37:33.781Z,7.49
2019-03-05T09:40:05.489Z,7.50
2019-03-05T09:42:39.910Z,7.51
2019-03-05T09:45:09.412Z,7.52
2019-03-05T09:47:39.929Z,7.52
2019-03-05T09:50:13.969Z,7.52
2019-03-05T09:52:54.408Z,7.65
2019-03-05T09:55:19.175Z,7.70
2019-03-05T09:57:53.567Z,7.90
2019-03-05T10:00:25.038Z,7.84
2019-03-05T10:02:55.830Z,7.93
2019-03-05T10:05:26.802Z,7.94
2019-03-05T10:07:57.526Z,7.93
2019-03-05T10:10:29.198Z,7.86
2019-03-05T10:13:04.340Z,7.86
2019-03-05T10:15:33.056Z,7.95
2019-03-05T10:18:12.356Z,7.99
2019-03-05T10:20:35.919Z,8.22
2019-03-05T10:23:07.000Z,8.42
2019-03-05T10:25:37.558Z,8.50
2019-03-05T10:28:08.390Z,8.59
2019-03-05T10:30:40.472Z,8.70
2019-03-05T10:33:11.465Z,8.78
2019-03-05T10:35:42.269Z,8.83
2019-03-05T10:38:13.650Z,9.06
2019-03-05T10:40:44.498Z,9.12
2019-03-05T10:43:15.955Z,9.24
2019-03-05T10:45:47.759Z,9.13
2019-03-05T10:48:19.759Z,9.01
2019-03-05T10:50:50.481Z,8.99
2019-03-05T10:53:21.036Z,8.84
2019-03-05T10:55:51.545Z,8.91
2019-03-05T10:58:32.761Z,8.89
2019-03-05T11:00:54.468Z,8.99
2019-03-05T11:03:27.356Z,9.23
2019-03-05T11:05:58.061Z,9.13
2019-03-05T11:08:28.983Z,9.18
2019-03-05T11:11:12.592Z,9.17
2019-03-05T11:13:34.240Z,9.08
2019-03-05T11:16:04.995Z,9.18
2019-03-05T11:18:36.755Z,9.39
2019-03-05T11:21:08.740Z,9.51
2019-03-05T11:23:41.216Z,9.71
2019-03-05T11:26:12.277Z,9.57
2019-03-05T11:28:43.162Z,9.78
2019-03-05T11:31:13.643Z,9.73
2019-03-05T11:33:44.141Z,9.93
2019-03-05T11:36:14.720Z,10.39
2019-03-05T11:38:46.120Z,11.16
2019-03-05T11:41:16.837Z,11.05
2019-03-05T11:43:48.176Z,11.33
2019-03-05T11:46:19.287Z,11.60
2019-03-05T11:48:50.298Z,11.49
2019-03-05T11:51:21.043Z,11.03
2019-03-05T11:53:51.840Z,10.98
2019-03-05T11:56:22.655Z,11.04
2019-03-05T11:58:54.056Z,10.99
2019-03-05T12:01:32.062Z,11.41
2019-03-05T12:04:02.892Z,11.62
2019-03-05T12:06:34.049Z,12.01
2019-03-05T12:09:06.099Z,11.33
2019-03-05T12:11:36.826Z,10.73
2019-03-05T12:14:07.675Z,10.46
2019-03-05T12:16:38.527Z,10.04
2019-03-05T12:19:09.108Z,10.61
2019-03-05T12:21:39.864Z,10.35
2019-03-05T12:24:10.499Z,10.03
2019-03-05T12:26:41.168Z,10.18
2019-03-05T12:29:11.894Z,11.00
2019-03-05T12:31:42.526Z,11.16
2019-03-05T12:34:13.346Z,11.34
2019-03-05T12:36:44.135Z,11.54
2019-03-05T12:39:16.826Z,11.75
2019-03-05T12:41:47.553Z,11.63
2019-03-05T12:44:18.221Z,12.05
2019-03-05T12:46:49.130Z,12.20
2019-03-05T12:49:20.106Z,12.85
2019-03-05T12:51:50.799Z,12.88
2019-03-05T12:54:21.885Z,12.79
2019-03-05T12:56:53.682Z,13.19
2019-03-05T12:59:24.273Z,13.52
2019-03-05T13:01:54.909Z,12.58
2019-03-05T13:04:25.575Z,12.65
2019-03-05T13:06:56.206Z,12.68
2019-03-05T13:09:26.874Z,12.72
2019-03-05T13:11:57.600Z,12.94
2019-03-05T13:14:28.189Z,12.74
2019-03-05T13:16:58.858Z,12.56
2019-03-05T13:19:29.936Z,13.27
2019-03-05T13:22:00.639Z,13.48
2019-03-05T13:24:31.269Z,12.91
2019-03-05T13:27:02.278Z,12.25
2019-03-05T13:29:32.878Z,11.98
2019-03-05T13:32:03.539Z,11.46
2019-03-05T13:34:34.181Z,12.12
2019-03-05T13:37:05.503Z,12.44
2019-03-05T13:39:36.425Z,12.63
2019-03-05T13:42:07.941Z,12.89
2019-03-05T13:44:38.844Z,12.98
2019-03-05T13:47:13.330Z,12.69
2019-03-05T13:50:19.045Z,12.59
2019-03-05T13:53:32.170Z,12.77
2019-03-05T13:56:42.405Z,12.84
2019-03-05T13:59:50.750Z,13.42
2019-03-05T14:02:26.154Z,13.74
2019-03-05T14:05:33.510Z,13.51
2019-03-05T14:08:45.014Z,12.98
2019-03-05T14:11:15.983Z,12.56
2019-03-05T14:13:46.926Z,12.29
2019-03-05T14:16:19.442Z,12.66
2019-03-05T14:18:50.011Z,12.93
2019-03-05T14:21:20.799Z,12.66
2019-03-05T14:23:51.334Z,12.81
2019-03-05T14:26:21.892Z,12.60
2019-03-05T14:28:52.401Z,12.22
2019-03-05T14:31:23.001Z,12.26
2019-03-05T14:33:54.155Z,11.85
2019-03-05T14:36:24.879Z,11.69
2019-03-05T14:38:55.418Z,11.98
2019-03-05T14:41:25.898Z,12.28
2019-03-05T14:43:56.429Z,12.24
2019-03-05T14:46:26.882Z,12.48
2019-03-05T14:48:57.939Z,12.43
2019-03-05T14:51:28.507Z,12.27
2019-03-05T14:53:59.022Z,11.89
2019-03-05T14:56:29.866Z,11.71
2019-03-05T14:59:00.345Z,11.43
2019-03-05T15:01:31.069Z,11.31
2019-03-05T15:04:01.787Z,11.32
2019-03-05T15:06:32.436Z,11.58
2019-03-05T15:09:03.481Z,11.78
2019-03-05T15:11:34.220Z,12.10
2019-03-05T15:14:05.047Z,12.35
2019-03-05T15:16:35.909Z,12.39
2019-03-05T15:19:06.512Z,12.28
2019-03-05T15:21:36.962Z,11.92
2019-03-05T15:24:07.520Z,11.91
2019-03-05T15:26:38.041Z,11.91
2019-03-05T15:29:08.655Z,11.81
2019-03-05T15:31:39.513Z,11.46
2019-03-05T15:34:10.514Z,11.40
2019-03-05T15:36:41.003Z,11.25
2019-03-05T15:39:11.724Z,11.12
2019-03-05T15:41:46.063Z,11.01
2019-03-05T15:44:14.547Z,10.91
2019-03-05T15:46:45.030Z,10.99
2019-03-05T15:49:15.613Z,10.93
2019-03-05T15:51:46.101Z,10.91
2019-03-05T15:54:16.635Z,10.83
2019-03-05T15:56:47.069Z,10.83
2019-03-05T15:59:18.199Z,10.83
2019-03-05T16:01:49.277Z,10.82
2019-03-05T16:04:19.783Z,10.76
2019-03-05T16:06:50.404Z,10.78
2019-03-05T16:09:21.416Z,10.82
2019-03-05T16:11:52.156Z,10.81
2019-03-05T16:14:23.142Z,10.81
2019-03-05T16:16:53.659Z,10.83
2019-03-05T16:19:24.425Z,10.67
2019-03-05T16:21:54.922Z,10.73
2019-03-05T16:24:25.446Z,10.69
2019-03-05T16:26:56.977Z,10.65
2019-03-05T16:29:28.324Z,10.67
2019-03-05T16:32:13.744Z,10.65
2019-03-05T16:34:57.957Z,10.56
2019-03-05T16:37:39.294Z,10.53
2019-03-05T16:40:32.808Z,10.40
2019-03-05T16:43:14.436Z,10.33
2019-03-05T16:46:03.109Z,10.24
2019-03-05T16:48:51.209Z,10.16
2019-03-05T16:51:27.913Z,10.09
2019-03-05T16:54:16.116Z,10.03
2019-03-05T16:57:05.465Z,9.97
2019-03-05T16:59:55.419Z,9.93
2019-03-05T17:02:41.223Z,9.83
2019-03-05T17:05:26.623Z,9.80
2019-03-05T17:08:28.060Z,9.78
2019-03-05T17:11:29.552Z,9.78
2019-03-05T17:14:00.450Z,9.72
2019-03-05T17:16:31.270Z,9.64
2019-03-05T17:19:01.814Z,9.55
2019-03-05T17:21:32.399Z,9.48
2019-03-05T17:24:02.873Z,9.46
2019-03-05T17:26:33.592Z,9.35
2019-03-05T17:29:04.160Z,9.35
2019-03-05T17:31:34.658Z,9.33
2019-03-05T17:34:05.308Z,9.28
2019-03-05T17:36:35.764Z,9.31
2019-03-05T17:39:10.883Z,9.19
2019-03-05T17:41:41.370Z,9.13
2019-03-05T17:44:11.873Z,9.14
2019-03-05T17:46:42.662Z,9.11
2019-03-05T17:49:13.202Z,9.05
2019-03-05T17:51:43.666Z,9.09
2019-03-05T17:54:14.193Z,9.03
2019-03-05T17:56:44.704Z,8.97
2019-03-05T17:59:15.397Z,8.93
2019-03-05T18:01:45.940Z,8.90
2019-03-05T18:04:16.980Z,8.87
2019-03-05T18:06:47.758Z,8.84
2019-03-05T18:09:19.494Z,8.88
2019-03-05T18:11:50.015Z,8.83
2019-03-05T18:14:20.852Z,8.80
2019-03-05T18:16:51.634Z,8.78
2019-03-05T18:19:22.741Z,8.78
2019-03-05T18:21:53.620Z,8.72
2019-03-05T18:24:24.423Z,8.71
2019-03-05T18:26:55.083Z,8.74
2019-03-05T18:29:25.567Z,8.64
2019-03-05T18:31:56.471Z,8.62
2019-03-05T18:34:27.397Z,8.61
2019-03-05T18:36:57.912Z,8.59
2019-03-05T18:39:28.688Z,8.59
2019-03-05T18:42:00.478Z,8.58
2019-03-05T18:44:32.722Z,8.54
2019-03-05T18:47:03.319Z,8.54
2019-03-05T18:49:34.574Z,8.53
2019-03-05T18:53:12.062Z,8.51
2019-03-05T18:55:42.994Z,8.50
2019-03-05T18:58:13.589Z,8.47
2019-03-05T19:43:40.088Z,8.01
2019-03-05T19:46:11.042Z,7.96
2019-03-05T19:48:41.879Z,7.94
2019-03-05T20:23:42.227Z,7.82
2019-03-05T20:26:13.047Z,7.82
2019-03-05T20:28:43.771Z,7.84
2019-03-05T20:45:17.461Z,7.79
2019-03-05T20:47:48.513Z,7.80
2019-03-05T20:50:19.259Z,7.80
2019-03-05T21:51:36.595Z,7.19
2019-03-05T21:54:07.446Z,7.27
2019-03-05T21:56:38.563Z,7.28
2019-03-05T21:59:09.794Z,7.25
2019-03-05T22:01:40.413Z,7.15
2019-03-05T22:04:10.997Z,7.24
2019-03-05T22:06:41.477Z,7.27
2019-03-05T22:09:12.293Z,7.21
2019-03-05T22:11:43.554Z,7.21
2019-03-05T22:14:14.103Z,7.21
2019-03-05T22:16:44.969Z,7.15
2019-03-05T22:19:15.463Z,7.22
2019-03-05T22:21:46.266Z,7.14
2019-03-05T22:24:17.076Z,7.23
2019-03-05T22:26:48.146Z,7.26
2019-03-05T22:29:19.163Z,7.24
2019-03-05T22:31:50.013Z,7.30
2019-03-05T22:34:22.076Z,7.35
2019-03-05T22:36:52.921Z,7.45
2019-03-05T22:39:23.444Z,7.42
2019-03-05T22:41:54.394Z,7.47
2019-03-05T22:44:25.239Z,7.51
2019-03-05T22:46:55.758Z,7.38
2019-03-05T22:49:26.730Z,7.37
2019-03-05T22:51:57.478Z,7.33
2019-03-05T22:54:27.958Z,7.39
2019-03-05T22:56:58.511Z,7.34
2019-03-05T22:59:29.008Z,7.40
2019-03-05T23:01:59.724Z,7.35
2019-03-05T23:04:37.692Z,7.31
2019-03-05T23:07:08.676Z,7.40
2019-03-05T23:09:39.177Z,7.41
2019-03-05T23:12:10.205Z,7.39
2019-03-05T23:14:40.890Z,7.40
2019-03-05T23:17:12.554Z,7.31
2019-03-05T23:19:43.156Z,7.33
2019-03-05T23:22:15.686Z,7.42
2019-03-05T23:24:46.197Z,7.41
2019-03-05T23:27:17.246Z,7.45
2019-03-05T23:29:48.860Z,7.39
2019-03-05T23:32:20.348Z,7.39
2019-03-05T23:34:51.045Z,7.37
2019-03-05T23:37:21.517Z,7.40
2019-03-05T23:39:52.456Z,7.39
2019-03-05T23:42:24.101Z,7.40
2019-03-05T23:44:54.610Z,7.43
2019-03-05T23:47:25.472Z,7.41
2019-03-05T23:49:56.063Z,7.42
2019-03-05T23:52:27.034Z,7.33
2019-03-05T23:54:57.530Z,7.38
2019-03-05T23:57:28.023Z,7.35
2019-03-05T23:59:58.970Z,7.39
